sensor_id;sensor_type;location;lat;lon;timestamp;P1;durP1;ratioP1;P2;durP2;ratioP2
58208;SDS011;44006;52.028;4.696;2023-09-07T00:00:37;11.23;;;8.75;;
58208;SDS011;44006;52.028;4.696;2023-09-07T00:03:02;10.97;;;8.10;;
58208;SDS011;44006;52.028;4.696;2023-09-07T00:05:29;15.02;;;8.80;;
58208;SDS011;44006;52.028;4.696;2023-09-07T00:07:54;12.57;;;8.63;;
58208;SDS011;44006;52.028;4.696;2023-09-07T00:10:21;11.20;;;8.75;;
58208;SDS011;44006;52.028;4.696;2023-09-07T00:12:46;9.25;;;7.88;;
58208;SDS011;44006;52.028;4.696;2023-09-07T00:15:11;11.55;;;9.65;;
58208;SDS011;44006;52.028;4.696;2023-09-07T00:17:37;12.37;;;8.57;;
58208;SDS011;44006;52.028;4.696;2023-09-07T00:20:02;9.87;;;8.17;;
58208;SDS011;44006;52.028;4.696;2023-09-07T00:22:35;11.52;;;9.00;;
58208;SDS011;44006;52.028;4.696;2023-09-07T00:25:00;10.05;;;8.38;;
58208;SDS011;44006;52.028;4.696;2023-09-07T00:27:25;10.45;;;8.13;;
58208;SDS011;44006;52.028;4.696;2023-09-07T00:29:51;10.30;;;8.30;;
58208;SDS011;44006;52.028;4.696;2023-09-07T00:32:16;12.23;;;8.70;;
58208;SDS011;44006;52.028;4.696;2023-09-07T00:34:41;8.57;;;7.50;;
58208;SDS011;44006;52.028;4.696;2023-09-07T00:37:06;11.93;;;7.87;;
58208;SDS011;44006;52.028;4.696;2023-09-07T00:39:31;8.53;;;7.50;;
58208;SDS011;44006;52.028;4.696;2023-09-07T00:41:57;11.20;;;8.37;;
58208;SDS011;44006;52.028;4.696;2023-09-07T00:44:22;9.75;;;8.32;;
58208;SDS011;44006;52.028;4.696;2023-09-07T00:46:47;11.77;;;8.57;;
58208;SDS011;44006;52.028;4.696;2023-09-07T00:49:13;10.77;;;9.23;;
58208;SDS011;44006;52.028;4.696;2023-09-07T00:51:39;12.15;;;7.82;;
58208;SDS011;44006;52.028;4.696;2023-09-07T00:54:04;9.98;;;8.23;;
58208;SDS011;44006;52.028;4.696;2023-09-07T00:56:29;8.52;;;7.53;;
58208;SDS011;44006;52.028;4.696;2023-09-07T00:58:55;12.27;;;8.05;;
58208;SDS011;44006;52.028;4.696;2023-09-07T01:01:22;11.25;;;8.38;;
58208;SDS011;44006;52.028;4.696;2023-09-07T01:03:48;9.57;;;8.27;;
58208;SDS011;44006;52.028;4.696;2023-09-07T01:06:18;10.20;;;8.20;;
58208;SDS011;44006;52.028;4.696;2023-09-07T01:08:46;10.30;;;8.35;;
58208;SDS011;44006;52.028;4.696;2023-09-07T01:11:18;10.20;;;8.32;;
58208;SDS011;44006;52.028;4.696;2023-09-07T01:13:48;10.68;;;8.68;;
58208;SDS011;44006;52.028;4.696;2023-09-07T01:16:13;10.73;;;8.10;;
58208;SDS011;44006;52.028;4.696;2023-09-07T01:18:41;10.00;;;8.43;;
58208;SDS011;44006;52.028;4.696;2023-09-07T01:21:07;8.80;;;7.65;;
58208;SDS011;44006;52.028;4.696;2023-09-07T01:23:36;14.18;;;8.93;;
58208;SDS011;44006;52.028;4.696;2023-09-07T01:26:01;12.43;;;9.02;;
58208;SDS011;44006;52.028;4.696;2023-09-07T01:28:27;11.45;;;8.68;;
58208;SDS011;44006;52.028;4.696;2023-09-07T01:30:52;10.40;;;8.65;;
58208;SDS011;44006;52.028;4.696;2023-09-07T01:33:17;10.20;;;8.73;;
58208;SDS011;44006;52.028;4.696;2023-09-07T01:35:43;11.77;;;8.98;;
58208;SDS011;44006;52.028;4.696;2023-09-07T01:38:08;12.13;;;8.85;;
58208;SDS011;44006;52.028;4.696;2023-09-07T01:40:33;10.57;;;8.43;;
58208;SDS011;44006;52.028;4.696;2023-09-07T01:42:59;10.93;;;8.93;;
58208;SDS011;44006;52.028;4.696;2023-09-07T01:45:24;10.52;;;9.43;;
58208;SDS011;44006;52.028;4.696;2023-09-07T01:47:49;12.80;;;9.25;;
58208;SDS011;44006;52.028;4.696;2023-09-07T01:50:15;12.63;;;8.77;;
58208;SDS011;44006;52.028;4.696;2023-09-07T01:52:40;11.18;;;8.88;;
58208;SDS011;44006;52.028;4.696;2023-09-07T01:55:05;10.18;;;9.00;;
58208;SDS011;44006;52.028;4.696;2023-09-07T01:57:31;13.07;;;9.77;;
58208;SDS011;44006;52.028;4.696;2023-09-07T01:59:56;11.82;;;9.55;;
58208;SDS011;44006;52.028;4.696;2023-09-07T02:02:22;12.98;;;8.70;;
58208;SDS011;44006;52.028;4.696;2023-09-07T02:04:48;11.77;;;9.30;;
58208;SDS011;44006;52.028;4.696;2023-09-07T02:07:13;11.45;;;9.18;;
58208;SDS011;44006;52.028;4.696;2023-09-07T02:09:39;10.50;;;9.07;;
58208;SDS011;44006;52.028;4.696;2023-09-07T02:12:04;10.45;;;8.38;;
58208;SDS011;44006;52.028;4.696;2023-09-07T02:14:31;10.65;;;8.68;;
58208;SDS011;44006;52.028;4.696;2023-09-07T02:16:56;13.40;;;9.73;;
58208;SDS011;44006;52.028;4.696;2023-09-07T02:19:21;12.88;;;9.68;;
58208;SDS011;44006;52.028;4.696;2023-09-07T02:21:48;13.30;;;9.57;;
58208;SDS011;44006;52.028;4.696;2023-09-07T02:24:13;10.45;;;9.15;;
58208;SDS011;44006;52.028;4.696;2023-09-07T02:26:39;11.90;;;10.18;;
58208;SDS011;44006;52.028;4.696;2023-09-07T02:29:10;12.32;;;9.88;;
58208;SDS011;44006;52.028;4.696;2023-09-07T02:31:35;12.95;;;10.10;;
58208;SDS011;44006;52.028;4.696;2023-09-07T02:34:00;10.50;;;9.32;;
58208;SDS011;44006;52.028;4.696;2023-09-07T02:36:25;11.70;;;9.87;;
58208;SDS011;44006;52.028;4.696;2023-09-07T02:38:51;12.68;;;10.10;;
58208;SDS011;44006;52.028;4.696;2023-09-07T02:41:16;13.67;;;10.23;;
58208;SDS011;44006;52.028;4.696;2023-09-07T02:43:41;12.00;;;9.88;;
58208;SDS011;44006;52.028;4.696;2023-09-07T02:46:06;12.77;;;10.20;;
58208;SDS011;44006;52.028;4.696;2023-09-07T02:48:31;12.00;;;10.02;;
58208;SDS011;44006;52.028;4.696;2023-09-07T02:50:57;11.52;;;9.57;;
58208;SDS011;44006;52.028;4.696;2023-09-07T02:53:23;12.95;;;10.27;;
58208;SDS011;44006;52.028;4.696;2023-09-07T02:55:49;13.70;;;11.77;;
58208;SDS011;44006;52.028;4.696;2023-09-07T02:58:14;12.40;;;10.97;;
58208;SDS011;44006;52.028;4.696;2023-09-07T03:00:42;13.13;;;10.70;;
58208;SDS011;44006;52.028;4.696;2023-09-07T03:03:09;14.77;;;12.18;;
58208;SDS011;44006;52.028;4.696;2023-09-07T03:05:34;11.93;;;10.55;;
58208;SDS011;44006;52.028;4.696;2023-09-07T03:07:59;13.85;;;11.88;;
58208;SDS011;44006;52.028;4.696;2023-09-07T03:10:25;13.83;;;11.57;;
58208;SDS011;44006;52.028;4.696;2023-09-07T03:12:50;14.13;;;11.38;;
58208;SDS011;44006;52.028;4.696;2023-09-07T03:15:16;18.15;;;12.63;;
58208;SDS011;44006;52.028;4.696;2023-09-07T03:17:41;14.18;;;12.13;;
58208;SDS011;44006;52.028;4.696;2023-09-07T03:20:07;13.43;;;11.80;;
58208;SDS011;44006;52.028;4.696;2023-09-07T03:22:42;15.48;;;12.57;;
58208;SDS011;44006;52.028;4.696;2023-09-07T03:25:08;15.02;;;12.48;;
58208;SDS011;44006;52.028;4.696;2023-09-07T03:27:33;15.50;;;13.73;;
58208;SDS011;44006;52.028;4.696;2023-09-07T03:29:59;16.80;;;13.87;;
58208;SDS011;44006;52.028;4.696;2023-09-07T03:32:24;17.55;;;13.80;;
58208;SDS011;44006;52.028;4.696;2023-09-07T03:34:52;17.20;;;14.65;;
58208;SDS011;44006;52.028;4.696;2023-09-07T03:37:17;16.77;;;14.07;;
58208;SDS011;44006;52.028;4.696;2023-09-07T03:39:42;16.63;;;13.57;;
58208;SDS011;44006;52.028;4.696;2023-09-07T03:42:07;17.23;;;13.60;;
58208;SDS011;44006;52.028;4.696;2023-09-07T03:44:32;18.17;;;13.77;;
58208;SDS011;44006;52.028;4.696;2023-09-07T03:46:57;16.80;;;13.43;;
58208;SDS011;44006;52.028;4.696;2023-09-07T03:49:23;16.20;;;12.87;;
58208;SDS011;44006;52.028;4.696;2023-09-07T03:51:48;16.17;;;13.97;;
58208;SDS011;44006;52.028;4.696;2023-09-07T03:54:13;16.93;;;13.93;;
58208;SDS011;44006;52.028;4.696;2023-09-07T03:56:38;15.07;;;13.27;;
58208;SDS011;44006;52.028;4.696;2023-09-07T03:59:04;15.60;;;12.57;;
58208;SDS011;44006;52.028;4.696;2023-09-07T04:01:29;18.95;;;14.30;;
58208;SDS011;44006;52.028;4.696;2023-09-07T04:03:55;16.10;;;14.00;;
58208;SDS011;44006;52.028;4.696;2023-09-07T04:06:20;16.70;;;13.45;;
58208;SDS011;44006;52.028;4.696;2023-09-07T04:08:45;16.35;;;13.60;;
58208;SDS011;44006;52.028;4.696;2023-09-07T04:11:10;20.10;;;15.90;;
58208;SDS011;44006;52.028;4.696;2023-09-07T04:13:36;17.38;;;14.25;;
58208;SDS011;44006;52.028;4.696;2023-09-07T04:16:01;18.13;;;14.27;;
58208;SDS011;44006;52.028;4.696;2023-09-07T04:18:26;19.20;;;14.23;;
58208;SDS011;44006;52.028;4.696;2023-09-07T04:20:51;18.80;;;14.05;;
58208;SDS011;44006;52.028;4.696;2023-09-07T04:23:17;18.40;;;14.52;;
58208;SDS011;44006;52.028;4.696;2023-09-07T04:25:42;20.93;;;15.93;;
58208;SDS011;44006;52.028;4.696;2023-09-07T04:28:07;20.40;;;15.23;;
58208;SDS011;44006;52.028;4.696;2023-09-07T04:30:33;17.70;;;14.85;;
58208;SDS011;44006;52.028;4.696;2023-09-07T04:33:01;19.08;;;15.82;;
58208;SDS011;44006;52.028;4.696;2023-09-07T04:35:29;16.48;;;14.30;;
58208;SDS011;44006;52.028;4.696;2023-09-07T04:37:55;19.38;;;15.02;;
58208;SDS011;44006;52.028;4.696;2023-09-07T04:40:21;20.98;;;14.60;;
58208;SDS011;44006;52.028;4.696;2023-09-07T04:42:47;16.83;;;13.98;;
58208;SDS011;44006;52.028;4.696;2023-09-07T04:45:12;17.70;;;14.13;;
58208;SDS011;44006;52.028;4.696;2023-09-07T04:47:37;16.63;;;14.77;;
58208;SDS011;44006;52.028;4.696;2023-09-07T04:50:02;18.10;;;14.07;;
58208;SDS011;44006;52.028;4.696;2023-09-07T04:52:29;19.90;;;15.27;;
58208;SDS011;44006;52.028;4.696;2023-09-07T04:54:54;19.92;;;15.95;;
58208;SDS011;44006;52.028;4.696;2023-09-07T04:57:19;18.07;;;14.47;;
58208;SDS011;44006;52.028;4.696;2023-09-07T04:59:45;18.77;;;14.57;;
58208;SDS011;44006;52.028;4.696;2023-09-07T05:02:10;21.42;;;16.17;;
58208;SDS011;44006;52.028;4.696;2023-09-07T05:04:37;21.55;;;15.55;;
58208;SDS011;44006;52.028;4.696;2023-09-07T05:07:02;16.20;;;14.23;;
58208;SDS011;44006;52.028;4.696;2023-09-07T05:09:27;18.00;;;14.65;;
58208;SDS011;44006;52.028;4.696;2023-09-07T05:11:54;20.42;;;15.05;;
58208;SDS011;44006;52.028;4.696;2023-09-07T05:14:19;16.83;;;13.73;;
58208;SDS011;44006;52.028;4.696;2023-09-07T05:16:45;18.40;;;14.73;;
58208;SDS011;44006;52.028;4.696;2023-09-07T05:19:10;15.85;;;13.52;;
58208;SDS011;44006;52.028;4.696;2023-09-07T05:21:35;20.63;;;14.13;;
58208;SDS011;44006;52.028;4.696;2023-09-07T05:24:00;18.55;;;15.57;;
58208;SDS011;44006;52.028;4.696;2023-09-07T05:26:26;17.87;;;14.63;;
58208;SDS011;44006;52.028;4.696;2023-09-07T05:28:51;19.73;;;15.10;;
58208;SDS011;44006;52.028;4.696;2023-09-07T05:31:16;20.48;;;15.05;;
58208;SDS011;44006;52.028;4.696;2023-09-07T05:33:41;19.55;;;14.98;;
58208;SDS011;44006;52.028;4.696;2023-09-07T05:36:07;19.00;;;14.43;;
58208;SDS011;44006;52.028;4.696;2023-09-07T05:38:32;18.08;;;13.65;;
58208;SDS011;44006;52.028;4.696;2023-09-07T05:40:57;18.15;;;13.70;;
58208;SDS011;44006;52.028;4.696;2023-09-07T05:43:22;18.00;;;14.90;;
58208;SDS011;44006;52.028;4.696;2023-09-07T05:45:48;20.57;;;14.83;;
58208;SDS011;44006;52.028;4.696;2023-09-07T05:48:13;18.13;;;14.17;;
58208;SDS011;44006;52.028;4.696;2023-09-07T05:50:41;18.02;;;14.10;;
58208;SDS011;44006;52.028;4.696;2023-09-07T05:53:06;19.23;;;14.57;;
58208;SDS011;44006;52.028;4.696;2023-09-07T05:55:31;19.13;;;16.00;;
58208;SDS011;44006;52.028;4.696;2023-09-07T05:57:57;20.23;;;14.40;;
58208;SDS011;44006;52.028;4.696;2023-09-07T06:00:23;17.83;;;13.93;;
58208;SDS011;44006;52.028;4.696;2023-09-07T06:02:48;19.23;;;13.82;;
58208;SDS011;44006;52.028;4.696;2023-09-07T06:05:14;18.25;;;14.38;;
58208;SDS011;44006;52.028;4.696;2023-09-07T06:07:39;18.58;;;13.38;;
58208;SDS011;44006;52.028;4.696;2023-09-07T06:10:04;23.02;;;14.90;;
58208;SDS011;44006;52.028;4.696;2023-09-07T06:12:33;18.52;;;13.35;;
58208;SDS011;44006;52.028;4.696;2023-09-07T06:14:59;16.85;;;13.27;;
58208;SDS011;44006;52.028;4.696;2023-09-07T06:17:24;17.85;;;14.13;;
58208;SDS011;44006;52.028;4.696;2023-09-07T06:19:49;22.20;;;14.57;;
58208;SDS011;44006;52.028;4.696;2023-09-07T06:22:14;19.03;;;13.93;;
58208;SDS011;44006;52.028;4.696;2023-09-07T06:24:39;18.07;;;13.60;;
58208;SDS011;44006;52.028;4.696;2023-09-07T06:27:05;18.40;;;13.25;;
58208;SDS011;44006;52.028;4.696;2023-09-07T06:29:30;16.53;;;13.67;;
58208;SDS011;44006;52.028;4.696;2023-09-07T06:31:55;19.88;;;13.77;;
58208;SDS011;44006;52.028;4.696;2023-09-07T06:34:20;18.30;;;14.07;;
58208;SDS011;44006;52.028;4.696;2023-09-07T06:36:46;18.55;;;14.15;;
58208;SDS011;44006;52.028;4.696;2023-09-07T06:39:11;17.88;;;14.18;;
58208;SDS011;44006;52.028;4.696;2023-09-07T06:41:36;20.30;;;14.63;;
58208;SDS011;44006;52.028;4.696;2023-09-07T06:44:01;18.43;;;13.60;;
58208;SDS011;44006;52.028;4.696;2023-09-07T06:46:27;18.70;;;14.35;;
58208;SDS011;44006;52.028;4.696;2023-09-07T06:48:52;19.67;;;14.20;;
58208;SDS011;44006;52.028;4.696;2023-09-07T06:51:17;20.98;;;13.70;;
58208;SDS011;44006;52.028;4.696;2023-09-07T06:53:42;16.58;;;12.70;;
58208;SDS011;44006;52.028;4.696;2023-09-07T06:56:08;16.10;;;13.27;;
58208;SDS011;44006;52.028;4.696;2023-09-07T06:58:33;15.98;;;12.65;;
58208;SDS011;44006;52.028;4.696;2023-09-07T07:00:59;18.23;;;14.00;;
58208;SDS011;44006;52.028;4.696;2023-09-07T07:03:26;18.38;;;12.60;;
58208;SDS011;44006;52.028;4.696;2023-09-07T07:05:51;17.13;;;12.85;;
58208;SDS011;44006;52.028;4.696;2023-09-07T07:08:16;15.80;;;12.90;;
58208;SDS011;44006;52.028;4.696;2023-09-07T07:10:42;21.33;;;13.30;;
58208;SDS011;44006;52.028;4.696;2023-09-07T07:13:07;18.27;;;13.13;;
58208;SDS011;44006;52.028;4.696;2023-09-07T07:15:32;16.20;;;12.00;;
58208;SDS011;44006;52.028;4.696;2023-09-07T07:17:59;14.73;;;12.80;;
58208;SDS011;44006;52.028;4.696;2023-09-07T07:20:24;14.68;;;12.40;;
58208;SDS011;44006;52.028;4.696;2023-09-07T07:22:49;16.27;;;12.27;;
58208;SDS011;44006;52.028;4.696;2023-09-07T07:25:17;15.57;;;11.73;;
58208;SDS011;44006;52.028;4.696;2023-09-07T07:27:43;14.52;;;12.45;;
58208;SDS011;44006;52.028;4.696;2023-09-07T07:30:08;16.85;;;13.27;;
58208;SDS011;44006;52.028;4.696;2023-09-07T07:32:33;15.95;;;12.25;;
58208;SDS011;44006;52.028;4.696;2023-09-07T07:34:59;16.60;;;12.45;;
58208;SDS011;44006;52.028;4.696;2023-09-07T07:37:24;16.38;;;12.00;;
58208;SDS011;44006;52.028;4.696;2023-09-07T07:39:49;16.73;;;12.07;;
58208;SDS011;44006;52.028;4.696;2023-09-07T07:42:14;15.83;;;12.50;;
58208;SDS011;44006;52.028;4.696;2023-09-07T07:44:39;15.52;;;11.80;;
58208;SDS011;44006;52.028;4.696;2023-09-07T07:47:05;18.50;;;12.57;;
58208;SDS011;44006;52.028;4.696;2023-09-07T07:49:30;15.25;;;12.05;;
58208;SDS011;44006;52.028;4.696;2023-09-07T07:51:56;16.67;;;12.32;;
58208;SDS011;44006;52.028;4.696;2023-09-07T07:54:22;15.13;;;12.05;;
58208;SDS011;44006;52.028;4.696;2023-09-07T07:56:49;16.75;;;11.93;;
58208;SDS011;44006;52.028;4.696;2023-09-07T07:59:15;13.73;;;10.57;;
58208;SDS011;44006;52.028;4.696;2023-09-07T08:01:40;18.47;;;10.93;;
58208;SDS011;44006;52.028;4.696;2023-09-07T08:04:05;16.10;;;12.13;;
58208;SDS011;44006;52.028;4.696;2023-09-07T08:06:32;16.33;;;11.02;;
58208;SDS011;44006;52.028;4.696;2023-09-07T08:08:57;13.82;;;11.25;;
58208;SDS011;44006;52.028;4.696;2023-09-07T08:11:22;15.00;;;10.30;;
58208;SDS011;44006;52.028;4.696;2023-09-07T08:13:48;15.15;;;11.20;;
58208;SDS011;44006;52.028;4.696;2023-09-07T08:16:13;17.70;;;11.93;;
58208;SDS011;44006;52.028;4.696;2023-09-07T08:18:38;14.25;;;10.75;;
58208;SDS011;44006;52.028;4.696;2023-09-07T08:21:05;13.15;;;10.32;;
58208;SDS011;44006;52.028;4.696;2023-09-07T08:23:30;14.70;;;10.57;;
58208;SDS011;44006;52.028;4.696;2023-09-07T08:25:56;14.00;;;9.55;;
58208;SDS011;44006;52.028;4.696;2023-09-07T08:28:21;12.15;;;9.80;;
58208;SDS011;44006;52.028;4.696;2023-09-07T08:30:50;12.93;;;10.10;;
58208;SDS011;44006;52.028;4.696;2023-09-07T08:33:18;13.45;;;9.70;;
58208;SDS011;44006;52.028;4.696;2023-09-07T08:35:43;11.68;;;9.60;;
58208;SDS011;44006;52.028;4.696;2023-09-07T08:38:12;13.68;;;9.25;;
58208;SDS011;44006;52.028;4.696;2023-09-07T08:40:38;11.85;;;8.80;;
58208;SDS011;44006;52.028;4.696;2023-09-07T08:43:05;11.68;;;8.95;;
58208;SDS011;44006;52.028;4.696;2023-09-07T08:45:33;11.23;;;8.85;;
58208;SDS011;44006;52.028;4.696;2023-09-07T08:48:01;11.68;;;8.10;;
58208;SDS011;44006;52.028;4.696;2023-09-07T08:50:27;11.55;;;9.18;;
58208;SDS011;44006;52.028;4.696;2023-09-07T08:52:52;11.68;;;8.50;;
58208;SDS011;44006;52.028;4.696;2023-09-07T08:55:18;12.95;;;7.97;;
58208;SDS011;44006;52.028;4.696;2023-09-07T08:57:44;8.60;;;7.22;;
58208;SDS011;44006;52.028;4.696;2023-09-07T09:00:10;10.23;;;7.35;;
58208;SDS011;44006;52.028;4.696;2023-09-07T09:02:42;13.95;;;8.13;;
58208;SDS011;44006;52.028;4.696;2023-09-07T09:05:08;12.52;;;8.38;;
58208;SDS011;44006;52.028;4.696;2023-09-07T09:07:34;14.35;;;8.63;;
58208;SDS011;44006;52.028;4.696;2023-09-07T09:10:06;10.52;;;7.65;;
58208;SDS011;44006;52.028;4.696;2023-09-07T09:12:32;11.45;;;6.80;;
58208;SDS011;44006;52.028;4.696;2023-09-07T09:14:58;9.73;;;7.47;;
58208;SDS011;44006;52.028;4.696;2023-09-07T09:17:24;8.35;;;6.53;;
58208;SDS011;44006;52.028;4.696;2023-09-07T09:19:49;9.63;;;6.03;;
58208;SDS011;44006;52.028;4.696;2023-09-07T09:22:15;8.98;;;6.40;;
58208;SDS011;44006;52.028;4.696;2023-09-07T09:24:40;8.90;;;5.93;;
58208;SDS011;44006;52.028;4.696;2023-09-07T09:27:05;8.88;;;6.28;;
58208;SDS011;44006;52.028;4.696;2023-09-07T09:29:34;7.78;;;5.90;;
58208;SDS011;44006;52.028;4.696;2023-09-07T09:32:10;9.60;;;5.93;;
58208;SDS011;44006;52.028;4.696;2023-09-07T09:34:38;8.73;;;6.20;;
58208;SDS011;44006;52.028;4.696;2023-09-07T09:37:04;7.32;;;6.20;;
58208;SDS011;44006;52.028;4.696;2023-09-07T09:39:29;7.97;;;5.65;;
58208;SDS011;44006;52.028;4.696;2023-09-07T09:41:55;9.73;;;5.70;;
58208;SDS011;44006;52.028;4.696;2023-09-07T09:44:21;8.30;;;5.30;;
58208;SDS011;44006;52.028;4.696;2023-09-07T09:46:50;11.85;;;5.32;;
58208;SDS011;44006;52.028;4.696;2023-09-07T09:49:16;5.70;;;4.60;;
58208;SDS011;44006;52.028;4.696;2023-09-07T09:51:41;7.60;;;5.03;;
58208;SDS011;44006;52.028;4.696;2023-09-07T09:54:07;9.68;;;5.55;;
58208;SDS011;44006;52.028;4.696;2023-09-07T09:56:33;8.02;;;5.20;;
58208;SDS011;44006;52.028;4.696;2023-09-07T09:58:59;10.00;;;4.68;;
58208;SDS011;44006;52.028;4.696;2023-09-07T10:01:24;7.70;;;5.20;;
58208;SDS011;44006;52.028;4.696;2023-09-07T10:03:49;5.57;;;4.75;;
58208;SDS011;44006;52.028;4.696;2023-09-07T10:06:20;7.00;;;5.00;;
58208;SDS011;44006;52.028;4.696;2023-09-07T10:08:52;6.90;;;4.30;;
58208;SDS011;44006;52.028;4.696;2023-09-07T10:11:17;8.43;;;4.88;;
58208;SDS011;44006;52.028;4.696;2023-09-07T10:13:56;6.93;;;4.47;;
58208;SDS011;44006;52.028;4.696;2023-09-07T10:16:21;7.70;;;3.78;;
58208;SDS011;44006;52.028;4.696;2023-09-07T10:18:46;5.43;;;3.90;;
58208;SDS011;44006;52.028;4.696;2023-09-07T10:21:12;5.93;;;4.23;;
58208;SDS011;44006;52.028;4.696;2023-09-07T10:26:03;7.40;;;4.73;;
58208;SDS011;44006;52.028;4.696;2023-09-07T10:28:31;7.88;;;4.45;;
58208;SDS011;44006;52.028;4.696;2023-09-07T10:31:00;5.97;;;4.28;;
58208;SDS011;44006;52.028;4.696;2023-09-07T10:33:25;7.03;;;4.30;;
58208;SDS011;44006;52.028;4.696;2023-09-07T10:35:51;5.13;;;3.80;;
58208;SDS011;44006;52.028;4.696;2023-09-07T10:38:17;5.93;;;3.70;;
58208;SDS011;44006;52.028;4.696;2023-09-07T10:40:45;6.10;;;3.93;;
58208;SDS011;44006;52.028;4.696;2023-09-07T10:43:14;8.30;;;4.25;;
58208;SDS011;44006;52.028;4.696;2023-09-07T10:45:39;5.15;;;3.45;;
58208;SDS011;44006;52.028;4.696;2023-09-07T10:48:08;6.30;;;3.85;;
58208;SDS011;44006;52.028;4.696;2023-09-07T10:50:44;6.70;;;4.25;;
58208;SDS011;44006;52.028;4.696;2023-09-07T10:53:09;6.13;;;4.03;;
58208;SDS011;44006;52.028;4.696;2023-09-07T10:55:37;8.23;;;4.53;;
58208;SDS011;44006;52.028;4.696;2023-09-07T10:58:06;5.55;;;4.10;;
58208;SDS011;44006;52.028;4.696;2023-09-07T11:00:31;6.80;;;3.75;;
58208;SDS011;44006;52.028;4.696;2023-09-07T11:02:56;5.47;;;3.70;;
58208;SDS011;44006;52.028;4.696;2023-09-07T11:05:22;6.00;;;3.67;;
58208;SDS011;44006;52.028;4.696;2023-09-07T11:07:47;4.90;;;3.67;;
58208;SDS011;44006;52.028;4.696;2023-09-07T11:10:12;7.65;;;4.38;;
58208;SDS011;44006;52.028;4.696;2023-09-07T11:12:38;7.05;;;4.00;;
58208;SDS011;44006;52.028;4.696;2023-09-07T11:15:03;8.77;;;3.67;;
58208;SDS011;44006;52.028;4.696;2023-09-07T11:17:29;5.47;;;3.42;;
58208;SDS011;44006;52.028;4.696;2023-09-07T11:19:54;8.00;;;3.78;;
58208;SDS011;44006;52.028;4.696;2023-09-07T11:22:20;4.18;;;3.55;;
58208;SDS011;44006;52.028;4.696;2023-09-07T11:24:46;4.88;;;3.45;;
58208;SDS011;44006;52.028;4.696;2023-09-07T11:27:11;6.55;;;4.00;;
58208;SDS011;44006;52.028;4.696;2023-09-07T11:29:36;7.43;;;3.23;;
58208;SDS011;44006;52.028;4.696;2023-09-07T11:32:08;6.47;;;3.75;;
58208;SDS011;44006;52.028;4.696;2023-09-07T11:34:34;4.00;;;3.20;;
58208;SDS011;44006;52.028;4.696;2023-09-07T11:37:02;6.97;;;3.47;;
58208;SDS011;44006;52.028;4.696;2023-09-07T11:39:28;5.65;;;3.20;;
58208;SDS011;44006;52.028;4.696;2023-09-07T11:41:53;5.57;;;3.47;;
58208;SDS011;44006;52.028;4.696;2023-09-07T11:44:18;5.30;;;3.53;;
58208;SDS011;44006;52.028;4.696;2023-09-07T11:46:43;5.37;;;3.77;;
58208;SDS011;44006;52.028;4.696;2023-09-07T11:49:08;7.73;;;3.97;;
58208;SDS011;44006;52.028;4.696;2023-09-07T11:51:34;6.88;;;3.67;;
58208;SDS011;44006;52.028;4.696;2023-09-07T11:53:59;5.43;;;3.43;;
58208;SDS011;44006;52.028;4.696;2023-09-07T11:56:24;8.27;;;3.90;;
58208;SDS011;44006;52.028;4.696;2023-09-07T11:58:50;5.23;;;3.60;;
58208;SDS011;44006;52.028;4.696;2023-09-07T12:01:15;5.20;;;3.78;;
58208;SDS011;44006;52.028;4.696;2023-09-07T12:03:41;4.30;;;3.40;;
58208;SDS011;44006;52.028;4.696;2023-09-07T12:06:07;4.97;;;3.67;;
58208;SDS011;44006;52.028;4.696;2023-09-07T12:08:32;8.00;;;3.67;;
58208;SDS011;44006;52.028;4.696;2023-09-07T12:10:57;5.63;;;3.70;;
58208;SDS011;44006;52.028;4.696;2023-09-07T12:13:22;5.10;;;3.77;;
58208;SDS011;44006;52.028;4.696;2023-09-07T12:15:47;9.40;;;4.10;;
58208;SDS011;44006;52.028;4.696;2023-09-07T12:18:13;6.82;;;3.83;;
58208;SDS011;44006;52.028;4.696;2023-09-07T12:20:38;5.50;;;3.83;;
58208;SDS011;44006;52.028;4.696;2023-09-07T12:23:03;6.53;;;3.57;;
58208;SDS011;44006;52.028;4.696;2023-09-07T12:25:29;7.32;;;3.40;;
58208;SDS011;44006;52.028;4.696;2023-09-07T12:27:54;4.67;;;3.90;;
58208;SDS011;44006;52.028;4.696;2023-09-07T12:30:22;5.97;;;4.20;;
58208;SDS011;44006;52.028;4.696;2023-09-07T12:32:48;6.93;;;3.92;;
58208;SDS011;44006;52.028;4.696;2023-09-07T12:35:15;6.43;;;3.60;;
58208;SDS011;44006;52.028;4.696;2023-09-07T12:37:40;5.65;;;3.75;;
58208;SDS011;44006;52.028;4.696;2023-09-07T12:40:05;6.17;;;4.13;;
58208;SDS011;44006;52.028;4.696;2023-09-07T12:42:40;4.50;;;3.45;;
58208;SDS011;44006;52.028;4.696;2023-09-07T12:45:07;5.50;;;3.38;;
58208;SDS011;44006;52.028;4.696;2023-09-07T12:47:33;5.05;;;3.58;;
58208;SDS011;44006;52.028;4.696;2023-09-07T12:49:59;4.85;;;3.53;;
58208;SDS011;44006;52.028;4.696;2023-09-07T12:52:24;9.90;;;3.60;;
58208;SDS011;44006;52.028;4.696;2023-09-07T12:54:49;6.50;;;3.33;;
58208;SDS011;44006;52.028;4.696;2023-09-07T12:57:14;7.17;;;3.70;;
58208;SDS011;44006;52.028;4.696;2023-09-07T12:59:39;6.05;;;3.63;;
58208;SDS011;44006;52.028;4.696;2023-09-07T13:02:05;7.10;;;3.50;;
58208;SDS011;44006;52.028;4.696;2023-09-07T13:04:30;7.30;;;3.70;;
58208;SDS011;44006;52.028;4.696;2023-09-07T13:06:55;4.10;;;3.37;;
58208;SDS011;44006;52.028;4.696;2023-09-07T13:09:20;6.53;;;3.72;;
58208;SDS011;44006;52.028;4.696;2023-09-07T13:11:46;5.67;;;3.30;;
58208;SDS011;44006;52.028;4.696;2023-09-07T13:14:11;6.93;;;3.77;;
58208;SDS011;44006;52.028;4.696;2023-09-07T13:16:36;5.13;;;3.40;;
58208;SDS011;44006;52.028;4.696;2023-09-07T13:19:02;4.03;;;3.38;;
58208;SDS011;44006;52.028;4.696;2023-09-07T13:21:27;5.95;;;3.72;;
58208;SDS011;44006;52.028;4.696;2023-09-07T13:23:52;5.33;;;3.40;;
58208;SDS011;44006;52.028;4.696;2023-09-07T13:26:17;5.17;;;3.60;;
58208;SDS011;44006;52.028;4.696;2023-09-07T13:28:43;5.20;;;3.80;;
58208;SDS011;44006;52.028;4.696;2023-09-07T13:31:08;6.07;;;3.70;;
58208;SDS011;44006;52.028;4.696;2023-09-07T13:33:33;8.05;;;3.63;;
58208;SDS011;44006;52.028;4.696;2023-09-07T13:35:58;6.22;;;3.63;;
58208;SDS011;44006;52.028;4.696;2023-09-07T13:38:24;4.80;;;3.30;;
58208;SDS011;44006;52.028;4.696;2023-09-07T13:40:49;5.90;;;3.67;;
58208;SDS011;44006;52.028;4.696;2023-09-07T13:43:14;7.07;;;3.57;;
58208;SDS011;44006;52.028;4.696;2023-09-07T13:45:39;4.30;;;3.60;;
58208;SDS011;44006;52.028;4.696;2023-09-07T13:48:05;6.15;;;3.97;;
58208;SDS011;44006;52.028;4.696;2023-09-07T13:50:30;4.10;;;3.40;;
58208;SDS011;44006;52.028;4.696;2023-09-07T13:52:56;7.45;;;4.05;;
58208;SDS011;44006;52.028;4.696;2023-09-07T13:55:21;4.55;;;3.55;;
58208;SDS011;44006;52.028;4.696;2023-09-07T13:57:47;9.27;;;4.20;;
58208;SDS011;44006;52.028;4.696;2023-09-07T14:00:12;9.20;;;5.03;;
58208;SDS011;44006;52.028;4.696;2023-09-07T14:02:38;5.97;;;4.20;;
58208;SDS011;44006;52.028;4.696;2023-09-07T14:05:03;5.25;;;3.83;;
58208;SDS011;44006;52.028;4.696;2023-09-07T14:07:30;5.47;;;3.70;;
58208;SDS011;44006;52.028;4.696;2023-09-07T14:09:55;5.82;;;3.95;;
58208;SDS011;44006;52.028;4.696;2023-09-07T14:12:20;4.40;;;3.90;;
58208;SDS011;44006;52.028;4.696;2023-09-07T14:14:46;6.75;;;3.75;;
58208;SDS011;44006;52.028;4.696;2023-09-07T14:17:13;5.40;;;3.60;;
58208;SDS011;44006;52.028;4.696;2023-09-07T14:19:38;6.40;;;3.90;;
58208;SDS011;44006;52.028;4.696;2023-09-07T14:22:03;6.90;;;3.97;;
58208;SDS011;44006;52.028;4.696;2023-09-07T14:24:29;5.90;;;3.75;;
58208;SDS011;44006;52.028;4.696;2023-09-07T14:26:54;6.53;;;4.07;;